Augusta Springs, Virginia
Current Conditions -  °F | °C
As of 10:15 AM on Thursday 23 Oct 2014 (Local Time) from KW13 Reporting Station
Clear Clear  
Wind Chill: 54°   Ceiling: Unl
Heat Index: 54°   Visibility: 10mi
Dew Point: 40°   Wind: 13mph
Humidity: 61%   Direction: 320°NW
Pressure: 30.01"   Gusts: 24mph
Location:  38.1°N, 79.32°W
Report Text: KW13 231415Z AUTO 32011G21KT 10SM CLR 12/05 A3001 RMK AO1 T01210047
Loading
Personal Weather Stations






























Interactive Weather Map
Tropical Storm Tracking
New forecast layout! Learn more

10-Day Weather Forecast

Advertisements
Track Severe Weather on mobile